sensor_id;sensor_type;location;lat;lon;timestamp;temperature;humidity
10660;DHT22;5378;53.206;13.316;2023-01-29T00:00:38;1.90;99.90
10660;DHT22;5378;53.206;13.316;2023-01-29T00:03:25;1.90;99.90
10660;DHT22;5378;53.206;13.316;2023-01-29T00:06:14;2.00;99.90
10660;DHT22;5378;53.206;13.316;2023-01-29T00:09:01;2.10;99.90
10660;DHT22;5378;53.206;13.316;2023-01-29T00:11:48;2.10;99.90
10660;DHT22;5378;53.206;13.316;2023-01-29T00:14:35;2.10;99.90
10660;DHT22;5378;53.206;13.316;2023-01-29T00:17:22;2.10;99.90
10660;DHT22;5378;53.206;13.316;2023-01-29T00:20:10;2.10;99.90
10660;DHT22;5378;53.206;13.316;2023-01-29T00:22:59;2.10;99.90
10660;DHT22;5378;53.206;13.316;2023-01-29T00:25:46;2.20;99.90
10660;DHT22;5378;53.206;13.316;2023-01-29T00:28:34;2.10;99.90
10660;DHT22;5378;53.206;13.316;2023-01-29T00:31:23;2.20;99.90
10660;DHT22;5378;53.206;13.316;2023-01-29T00:34:10;2.20;99.90
10660;DHT22;5378;53.206;13.316;2023-01-29T00:36:57;2.20;99.90
10660;DHT22;5378;53.206;13.316;2023-01-29T00:39:51;2.20;99.90
10660;DHT22;5378;53.206;13.316;2023-01-29T00:42:38;2.20;99.90
10660;DHT22;5378;53.206;13.316;2023-01-29T00:45:42;2.30;99.90
10660;DHT22;5378;53.206;13.316;2023-01-29T00:48:29;2.30;99.90
10660;DHT22;5378;53.206;13.316;2023-01-29T00:51:17;2.30;99.90
10660;DHT22;5378;53.206;13.316;2023-01-29T00:54:04;2.30;99.90
10660;DHT22;5378;53.206;13.316;2023-01-29T00:56:53;2.30;99.90
10660;DHT22;5378;53.206;13.316;2023-01-29T00:59:40;2.30;99.90
10660;DHT22;5378;53.206;13.316;2023-01-29T01:02:27;2.30;99.90
10660;DHT22;5378;53.206;13.316;2023-01-29T01:05:32;2.20;99.90
10660;DHT22;5378;53.206;13.316;2023-01-29T01:08:20;2.30;99.90
10660;DHT22;5378;53.206;13.316;2023-01-29T01:11:24;2.30;99.90
10660;DHT22;5378;53.206;13.316;2023-01-29T01:14:13;2.30;99.90
10660;DHT22;5378;53.206;13.316;2023-01-29T01:17:01;2.30;99.90
10660;DHT22;5378;53.206;13.316;2023-01-29T01:19:48;2.30;99.90
10660;DHT22;5378;53.206;13.316;2023-01-29T01:22:35;2.40;99.90
10660;DHT22;5378;53.206;13.316;2023-01-29T01:25:23;2.40;99.90
10660;DHT22;5378;53.206;13.316;2023-01-29T01:28:11;2.40;99.90
10660;DHT22;5378;53.206;13.316;2023-01-29T01:31:07;2.40;99.90
10660;DHT22;5378;53.206;13.316;2023-01-29T01:33:54;2.40;99.90
10660;DHT22;5378;53.206;13.316;2023-01-29T01:36:41;2.40;99.90
10660;DHT22;5378;53.206;13.316;2023-01-29T01:39:28;2.50;99.90
10660;DHT22;5378;53.206;13.316;2023-01-29T01:42:16;2.50;99.90
10660;DHT22;5378;53.206;13.316;2023-01-29T01:45:06;2.50;99.90
10660;DHT22;5378;53.206;13.316;2023-01-29T01:48:00;2.50;99.90
10660;DHT22;5378;53.206;13.316;2023-01-29T01:50:51;2.50;99.90
10660;DHT22;5378;53.206;13.316;2023-01-29T01:53:41;2.50;99.90
10660;DHT22;5378;53.206;13.316;2023-01-29T01:56:32;2.40;99.90
10660;DHT22;5378;53.206;13.316;2023-01-29T01:59:26;2.50;99.90
10660;DHT22;5378;53.206;13.316;2023-01-29T02:02:13;2.50;99.90
10660;DHT22;5378;53.206;13.316;2023-01-29T02:05:20;2.40;99.90
10660;DHT22;5378;53.206;13.316;2023-01-29T02:08:30;2.50;99.90
10660;DHT22;5378;53.206;13.316;2023-01-29T02:11:35;2.60;99.90
10660;DHT22;5378;53.206;13.316;2023-01-29T02:14:23;2.50;99.90
10660;DHT22;5378;53.206;13.316;2023-01-29T02:17:13;2.60;99.90
10660;DHT22;5378;53.206;13.316;2023-01-29T02:20:08;2.60;99.90
10660;DHT22;5378;53.206;13.316;2023-01-29T02:23:13;2.60;99.90
10660;DHT22;5378;53.206;13.316;2023-01-29T02:26:24;2.60;99.90
10660;DHT22;5378;53.206;13.316;2023-01-29T02:29:21;2.60;99.90
10660;DHT22;5378;53.206;13.316;2023-01-29T02:32:19;2.60;99.90
10660;DHT22;5378;53.206;13.316;2023-01-29T02:35:14;2.60;99.90
10660;DHT22;5378;53.206;13.316;2023-01-29T02:38:18;2.60;99.90
10660;DHT22;5378;53.206;13.316;2023-01-29T02:41:15;2.70;99.90
10660;DHT22;5378;53.206;13.316;2023-01-29T02:44:12;2.70;99.90
10660;DHT22;5378;53.206;13.316;2023-01-29T02:47:03;2.70;99.90
10660;DHT22;5378;53.206;13.316;2023-01-29T02:49:59;2.70;99.90
10660;DHT22;5378;53.206;13.316;2023-01-29T02:52:53;2.70;99.90
10660;DHT22;5378;53.206;13.316;2023-01-29T02:55:47;2.70;99.90
10660;DHT22;5378;53.206;13.316;2023-01-29T02:58:38;2.80;99.90
10660;DHT22;5378;53.206;13.316;2023-01-29T03:01:30;2.70;99.90
10660;DHT22;5378;53.206;13.316;2023-01-29T03:04:25;2.70;99.90
10660;DHT22;5378;53.206;13.316;2023-01-29T03:07:16;2.70;99.90
10660;DHT22;5378;53.206;13.316;2023-01-29T03:10:32;2.70;99.90
10660;DHT22;5378;53.206;13.316;2023-01-29T03:13:25;2.80;99.90
10660;DHT22;5378;53.206;13.316;2023-01-29T03:16:20;2.70;99.90
10660;DHT22;5378;53.206;13.316;2023-01-29T03:19:13;2.80;99.90
10660;DHT22;5378;53.206;13.316;2023-01-29T03:22:04;2.80;99.90
10660;DHT22;5378;53.206;13.316;2023-01-29T03:24:56;2.80;99.90
10660;DHT22;5378;53.206;13.316;2023-01-29T03:28:05;2.80;99.90
10660;DHT22;5378;53.206;13.316;2023-01-29T03:31:11;2.80;99.90
10660;DHT22;5378;53.206;13.316;2023-01-29T03:34:21;2.80;99.90
10660;DHT22;5378;53.206;13.316;2023-01-29T03:37:19;2.90;99.90
10660;DHT22;5378;53.206;13.316;2023-01-29T03:40:08;2.90;99.90
10660;DHT22;5378;53.206;13.316;2023-01-29T03:43:06;3.00;99.90
10660;DHT22;5378;53.206;13.316;2023-01-29T03:46:00;3.00;99.90
10660;DHT22;5378;53.206;13.316;2023-01-29T03:48:53;3.00;99.90
10660;DHT22;5378;53.206;13.316;2023-01-29T03:51:47;3.00;99.90
10660;DHT22;5378;53.206;13.316;2023-01-29T03:54:44;3.10;99.90
10660;DHT22;5378;53.206;13.316;2023-01-29T03:57:39;3.00;99.90
10660;DHT22;5378;53.206;13.316;2023-01-29T04:00:34;3.00;99.90
10660;DHT22;5378;53.206;13.316;2023-01-29T04:03:30;3.10;99.90
10660;DHT22;5378;53.206;13.316;2023-01-29T04:06:22;3.00;99.90
10660;DHT22;5378;53.206;13.316;2023-01-29T04:09:27;3.00;99.90
10660;DHT22;5378;53.206;13.316;2023-01-29T04:12:20;3.10;99.90
10660;DHT22;5378;53.206;13.316;2023-01-29T04:15:13;3.10;99.90
10660;DHT22;5378;53.206;13.316;2023-01-29T04:18:02;3.10;99.90
10660;DHT22;5378;53.206;13.316;2023-01-29T04:21:02;3.10;99.90
10660;DHT22;5378;53.206;13.316;2023-01-29T04:23:52;3.10;99.90
10660;DHT22;5378;53.206;13.316;2023-01-29T04:26:54;3.10;99.90
10660;DHT22;5378;53.206;13.316;2023-01-29T04:29:53;3.10;99.90
10660;DHT22;5378;53.206;13.316;2023-01-29T04:32:55;3.10;99.90
10660;DHT22;5378;53.206;13.316;2023-01-29T04:35:54;3.10;99.90
10660;DHT22;5378;53.206;13.316;2023-01-29T04:38:53;3.10;99.90
10660;DHT22;5378;53.206;13.316;2023-01-29T04:41:49;3.20;99.90
10660;DHT22;5378;53.206;13.316;2023-01-29T04:44:41;3.10;99.90
10660;DHT22;5378;53.206;13.316;2023-01-29T04:47:34;3.50;99.90
10660;DHT22;5378;53.206;13.316;2023-01-29T04:50:29;3.30;99.90
10660;DHT22;5378;53.206;13.316;2023-01-29T04:53:24;3.30;99.90
10660;DHT22;5378;53.206;13.316;2023-01-29T04:56:17;3.30;99.90
10660;DHT22;5378;53.206;13.316;2023-01-29T04:59:10;3.30;99.90
10660;DHT22;5378;53.206;13.316;2023-01-29T05:01:58;3.30;99.90
10660;DHT22;5378;53.206;13.316;2023-01-29T05:04:48;3.30;99.90
10660;DHT22;5378;53.206;13.316;2023-01-29T05:07:37;3.30;99.90
10660;DHT22;5378;53.206;13.316;2023-01-29T05:10:25;3.30;99.90
10660;DHT22;5378;53.206;13.316;2023-01-29T05:13:13;3.20;99.90
10660;DHT22;5378;53.206;13.316;2023-01-29T05:16:03;3.20;99.90
10660;DHT22;5378;53.206;13.316;2023-01-29T05:18:51;3.20;99.90
10660;DHT22;5378;53.206;13.316;2023-01-29T05:21:40;3.30;99.90
10660;DHT22;5378;53.206;13.316;2023-01-29T05:24:28;3.40;99.90
10660;DHT22;5378;53.206;13.316;2023-01-29T05:27:18;3.40;99.90
10660;DHT22;5378;53.206;13.316;2023-01-29T05:30:23;3.30;99.90
10660;DHT22;5378;53.206;13.316;2023-01-29T05:33:14;3.30;99.90
10660;DHT22;5378;53.206;13.316;2023-01-29T05:36:01;3.30;99.90
10660;DHT22;5378;53.206;13.316;2023-01-29T05:38:50;3.40;99.90
10660;DHT22;5378;53.206;13.316;2023-01-29T05:41:37;3.30;99.90
10660;DHT22;5378;53.206;13.316;2023-01-29T05:44:24;3.30;99.90
10660;DHT22;5378;53.206;13.316;2023-01-29T05:47:12;3.30;99.90
10660;DHT22;5378;53.206;13.316;2023-01-29T05:49:59;3.30;99.90
10660;DHT22;5378;53.206;13.316;2023-01-29T05:52:46;3.30;99.90
10660;DHT22;5378;53.206;13.316;2023-01-29T05:55:34;3.30;99.90
10660;DHT22;5378;53.206;13.316;2023-01-29T05:58:22;3.40;99.90
10660;DHT22;5378;53.206;13.316;2023-01-29T06:01:10;3.40;99.90
10660;DHT22;5378;53.206;13.316;2023-01-29T06:03:57;3.40;99.90
10660;DHT22;5378;53.206;13.316;2023-01-29T06:06:44;3.40;99.90
10660;DHT22;5378;53.206;13.316;2023-01-29T06:09:32;3.50;99.90
10660;DHT22;5378;53.206;13.316;2023-01-29T06:12:20;3.40;99.90
10660;DHT22;5378;53.206;13.316;2023-01-29T06:15:08;3.40;99.90
10660;DHT22;5378;53.206;13.316;2023-01-29T06:17:56;3.30;99.90
10660;DHT22;5378;53.206;13.316;2023-01-29T06:20:43;3.40;99.90
10660;DHT22;5378;53.206;13.316;2023-01-29T06:23:31;3.40;99.90
10660;DHT22;5378;53.206;13.316;2023-01-29T06:26:18;3.30;99.90
10660;DHT22;5378;53.206;13.316;2023-01-29T06:29:06;3.30;99.90
10660;DHT22;5378;53.206;13.316;2023-01-29T06:31:54;3.40;99.90
10660;DHT22;5378;53.206;13.316;2023-01-29T06:34:41;3.40;99.90
10660;DHT22;5378;53.206;13.316;2023-01-29T06:37:28;3.40;99.90
10660;DHT22;5378;53.206;13.316;2023-01-29T06:40:15;3.40;99.90
10660;DHT22;5378;53.206;13.316;2023-01-29T06:43:03;3.50;99.90
10660;DHT22;5378;53.206;13.316;2023-01-29T06:45:53;3.40;99.90
10660;DHT22;5378;53.206;13.316;2023-01-29T06:48:40;3.50;99.90
10660;DHT22;5378;53.206;13.316;2023-01-29T06:51:27;3.50;99.90
10660;DHT22;5378;53.206;13.316;2023-01-29T06:54:14;3.60;99.90
10660;DHT22;5378;53.206;13.316;2023-01-29T06:57:01;3.70;99.90
10660;DHT22;5378;53.206;13.316;2023-01-29T06:59:49;3.70;99.90
10660;DHT22;5378;53.206;13.316;2023-01-29T07:02:37;3.70;99.90
10660;DHT22;5378;53.206;13.316;2023-01-29T07:05:25;3.70;99.90
10660;DHT22;5378;53.206;13.316;2023-01-29T07:08:12;3.70;99.90
10660;DHT22;5378;53.206;13.316;2023-01-29T07:10:59;3.70;99.90
10660;DHT22;5378;53.206;13.316;2023-01-29T07:13:46;3.70;99.90
10660;DHT22;5378;53.206;13.316;2023-01-29T07:16:33;3.70;99.90
10660;DHT22;5378;53.206;13.316;2023-01-29T07:19:22;3.80;99.90
10660;DHT22;5378;53.206;13.316;2023-01-29T07:22:09;3.80;99.90
10660;DHT22;5378;53.206;13.316;2023-01-29T07:24:56;3.80;99.90
10660;DHT22;5378;53.206;13.316;2023-01-29T07:27:43;3.80;99.90
10660;DHT22;5378;53.206;13.316;2023-01-29T07:30:31;3.80;99.90
10660;DHT22;5378;53.206;13.316;2023-01-29T07:33:18;3.70;99.90
10660;DHT22;5378;53.206;13.316;2023-01-29T07:36:08;3.80;99.90
10660;DHT22;5378;53.206;13.316;2023-01-29T07:38:56;3.90;99.90
10660;DHT22;5378;53.206;13.316;2023-01-29T07:41:43;3.80;99.90
10660;DHT22;5378;53.206;13.316;2023-01-29T07:44:35;3.80;99.90
10660;DHT22;5378;53.206;13.316;2023-01-29T07:47:22;3.80;99.90
10660;DHT22;5378;53.206;13.316;2023-01-29T07:50:10;3.80;99.90
10660;DHT22;5378;53.206;13.316;2023-01-29T07:52:59;3.80;99.90
10660;DHT22;5378;53.206;13.316;2023-01-29T07:55:46;3.70;99.90
10660;DHT22;5378;53.206;13.316;2023-01-29T07:58:33;3.80;99.90
10660;DHT22;5378;53.206;13.316;2023-01-29T08:01:21;3.80;99.90
10660;DHT22;5378;53.206;13.316;2023-01-29T08:04:09;3.90;99.90
10660;DHT22;5378;53.206;13.316;2023-01-29T08:06:57;3.90;99.90
10660;DHT22;5378;53.206;13.316;2023-01-29T08:09:45;3.90;99.90
10660;DHT22;5378;53.206;13.316;2023-01-29T08:12:33;3.90;99.90
10660;DHT22;5378;53.206;13.316;2023-01-29T08:15:20;3.90;99.90
10660;DHT22;5378;53.206;13.316;2023-01-29T08:18:07;3.90;99.90
10660;DHT22;5378;53.206;13.316;2023-01-29T08:20:58;3.90;99.90
10660;DHT22;5378;53.206;13.316;2023-01-29T08:23:45;4.00;99.90
10660;DHT22;5378;53.206;13.316;2023-01-29T08:26:34;4.00;99.90
10660;DHT22;5378;53.206;13.316;2023-01-29T08:29:21;4.00;99.90
10660;DHT22;5378;53.206;13.316;2023-01-29T08:32:08;3.90;99.90
10660;DHT22;5378;53.206;13.316;2023-01-29T08:34:56;3.90;99.90
10660;DHT22;5378;53.206;13.316;2023-01-29T08:37:43;4.00;99.90
10660;DHT22;5378;53.206;13.316;2023-01-29T08:40:32;4.00;99.90
10660;DHT22;5378;53.206;13.316;2023-01-29T08:43:20;4.10;99.90
10660;DHT22;5378;53.206;13.316;2023-01-29T08:46:07;4.10;99.90
10660;DHT22;5378;53.206;13.316;2023-01-29T08:48:55;4.20;99.90
10660;DHT22;5378;53.206;13.316;2023-01-29T08:51:42;4.20;99.90
10660;DHT22;5378;53.206;13.316;2023-01-29T08:54:29;4.20;99.90
10660;DHT22;5378;53.206;13.316;2023-01-29T08:57:16;4.20;99.90
10660;DHT22;5378;53.206;13.316;2023-01-29T09:00:06;4.20;99.90
10660;DHT22;5378;53.206;13.316;2023-01-29T09:02:54;4.20;99.90
10660;DHT22;5378;53.206;13.316;2023-01-29T09:05:41;4.20;99.90
10660;DHT22;5378;53.206;13.316;2023-01-29T09:08:28;4.30;99.90
10660;DHT22;5378;53.206;13.316;2023-01-29T09:11:15;4.40;99.90
10660;DHT22;5378;53.206;13.316;2023-01-29T09:14:02;4.40;99.90
10660;DHT22;5378;53.206;13.316;2023-01-29T09:16:51;4.40;99.90
10660;DHT22;5378;53.206;13.316;2023-01-29T09:19:38;4.30;99.90
10660;DHT22;5378;53.206;13.316;2023-01-29T09:22:25;4.30;99.90
10660;DHT22;5378;53.206;13.316;2023-01-29T09:25:12;4.30;99.90
10660;DHT22;5378;53.206;13.316;2023-01-29T09:28:00;4.40;99.90
10660;DHT22;5378;53.206;13.316;2023-01-29T09:30:47;4.30;99.90
10660;DHT22;5378;53.206;13.316;2023-01-29T09:33:36;4.30;99.90
10660;DHT22;5378;53.206;13.316;2023-01-29T09:36:23;4.40;99.90
10660;DHT22;5378;53.206;13.316;2023-01-29T09:39:10;4.40;99.90
10660;DHT22;5378;53.206;13.316;2023-01-29T09:42:03;4.40;99.90
10660;DHT22;5378;53.206;13.316;2023-01-29T09:45:00;4.40;99.90
10660;DHT22;5378;53.206;13.316;2023-01-29T09:47:49;4.50;99.90
10660;DHT22;5378;53.206;13.316;2023-01-29T09:50:41;4.40;99.90
10660;DHT22;5378;53.206;13.316;2023-01-29T09:53:34;4.50;99.90
10660;DHT22;5378;53.206;13.316;2023-01-29T09:56:25;4.60;99.90
10660;DHT22;5378;53.206;13.316;2023-01-29T09:59:15;4.70;99.90
10660;DHT22;5378;53.206;13.316;2023-01-29T10:02:09;4.70;99.90
10660;DHT22;5378;53.206;13.316;2023-01-29T10:05:06;4.80;99.90
10660;DHT22;5378;53.206;13.316;2023-01-29T10:08:25;4.90;99.90
10660;DHT22;5378;53.206;13.316;2023-01-29T10:11:22;5.00;99.90
10660;DHT22;5378;53.206;13.316;2023-01-29T10:14:17;5.00;99.90
10660;DHT22;5378;53.206;13.316;2023-01-29T10:17:17;5.00;99.90
10660;DHT22;5378;53.206;13.316;2023-01-29T10:20:25;5.10;99.90
10660;DHT22;5378;53.206;13.316;2023-01-29T10:23:21;5.10;99.90
10660;DHT22;5378;53.206;13.316;2023-01-29T10:26:10;5.00;99.90
10660;DHT22;5378;53.206;13.316;2023-01-29T10:29:00;5.00;99.90
10660;DHT22;5378;53.206;13.316;2023-01-29T10:31:54;5.10;99.90
10660;DHT22;5378;53.206;13.316;2023-01-29T10:34:47;5.30;99.90
10660;DHT22;5378;53.206;13.316;2023-01-29T10:37:38;5.20;99.90
10660;DHT22;5378;53.206;13.316;2023-01-29T10:40:33;5.30;99.90
10660;DHT22;5378;53.206;13.316;2023-01-29T10:43:29;5.30;99.90
10660;DHT22;5378;53.206;13.316;2023-01-29T10:46:28;5.30;99.90
10660;DHT22;5378;53.206;13.316;2023-01-29T10:49:28;5.30;99.90
10660;DHT22;5378;53.206;13.316;2023-01-29T10:52:31;5.30;99.90
10660;DHT22;5378;53.206;13.316;2023-01-29T10:55:31;5.40;99.90
10660;DHT22;5378;53.206;13.316;2023-01-29T10:58:28;5.50;99.90
10660;DHT22;5378;53.206;13.316;2023-01-29T11:01:16;5.40;99.90
10660;DHT22;5378;53.206;13.316;2023-01-29T11:04:05;5.40;99.90
10660;DHT22;5378;53.206;13.316;2023-01-29T11:06:52;5.50;99.90
10660;DHT22;5378;53.206;13.316;2023-01-29T11:09:44;5.40;99.90
10660;DHT22;5378;53.206;13.316;2023-01-29T11:12:34;5.40;99.90
10660;DHT22;5378;53.206;13.316;2023-01-29T11:15:25;5.40;99.90
10660;DHT22;5378;53.206;13.316;2023-01-29T11:18:14;5.40;99.90
10660;DHT22;5378;53.206;13.316;2023-01-29T11:21:03;5.40;99.90
10660;DHT22;5378;53.206;13.316;2023-01-29T11:24:05;5.40;99.90
10660;DHT22;5378;53.206;13.316;2023-01-29T11:26:54;5.40;99.90
10660;DHT22;5378;53.206;13.316;2023-01-29T11:29:44;5.40;99.90
10660;DHT22;5378;53.206;13.316;2023-01-29T11:32:34;5.30;99.90
10660;DHT22;5378;53.206;13.316;2023-01-29T11:35:23;5.40;99.90
10660;DHT22;5378;53.206;13.316;2023-01-29T11:38:18;5.40;99.90
10660;DHT22;5378;53.206;13.316;2023-01-29T11:41:15;5.40;99.90
10660;DHT22;5378;53.206;13.316;2023-01-29T11:44:17;5.40;99.90
10660;DHT22;5378;53.206;13.316;2023-01-29T11:47:17;5.40;99.90
10660;DHT22;5378;53.206;13.316;2023-01-29T11:50:05;5.40;99.90
10660;DHT22;5378;53.206;13.316;2023-01-29T11:52:52;5.50;99.90
10660;DHT22;5378;53.206;13.316;2023-01-29T11:55:44;5.50;99.90
10660;DHT22;5378;53.206;13.316;2023-01-29T11:58:35;5.50;99.90
10660;DHT22;5378;53.206;13.316;2023-01-29T12:01:30;5.60;99.90
10660;DHT22;5378;53.206;13.316;2023-01-29T12:04:22;5.60;99.90
10660;DHT22;5378;53.206;13.316;2023-01-29T12:07:12;5.60;99.90
10660;DHT22;5378;53.206;13.316;2023-01-29T12:10:00;5.50;99.90
10660;DHT22;5378;53.206;13.316;2023-01-29T12:12:48;5.60;99.90
10660;DHT22;5378;53.206;13.316;2023-01-29T12:15:35;5.70;99.90
10660;DHT22;5378;53.206;13.316;2023-01-29T12:18:28;5.70;99.90
10660;DHT22;5378;53.206;13.316;2023-01-29T12:21:23;5.70;99.90
10660;DHT22;5378;53.206;13.316;2023-01-29T12:24:22;5.70;99.90
10660;DHT22;5378;53.206;13.316;2023-01-29T12:27:14;5.70;99.90
10660;DHT22;5378;53.206;13.316;2023-01-29T12:30:09;5.60;99.90
10660;DHT22;5378;53.206;13.316;2023-01-29T12:33:02;5.60;99.90
10660;DHT22;5378;53.206;13.316;2023-01-29T12:35:53;5.50;99.90
10660;DHT22;5378;53.206;13.316;2023-01-29T12:38:44;5.40;99.90
10660;DHT22;5378;53.206;13.316;2023-01-29T12:41:36;5.40;99.90
10660;DHT22;5378;53.206;13.316;2023-01-29T12:44:29;5.50;99.90
10660;DHT22;5378;53.206;13.316;2023-01-29T12:47:22;5.30;99.90
10660;DHT22;5378;53.206;13.316;2023-01-29T12:50:17;5.20;99.90
10660;DHT22;5378;53.206;13.316;2023-01-29T12:53:09;5.30;99.90
10660;DHT22;5378;53.206;13.316;2023-01-29T12:56:07;5.30;99.90
10660;DHT22;5378;53.206;13.316;2023-01-29T12:58:56;5.40;99.90
10660;DHT22;5378;53.206;13.316;2023-01-29T13:01:49;5.50;99.90
10660;DHT22;5378;53.206;13.316;2023-01-29T13:04:40;5.40;99.90
10660;DHT22;5378;53.206;13.316;2023-01-29T13:07:34;5.40;99.90
10660;DHT22;5378;53.206;13.316;2023-01-29T13:10:24;5.40;99.90
10660;DHT22;5378;53.206;13.316;2023-01-29T13:13:21;5.40;99.90
10660;DHT22;5378;53.206;13.316;2023-01-29T13:16:11;5.40;99.90
10660;DHT22;5378;53.206;13.316;2023-01-29T13:19:02;5.50;99.90
10660;DHT22;5378;53.206;13.316;2023-01-29T13:21:53;5.50;99.90
10660;DHT22;5378;53.206;13.316;2023-01-29T13:24:40;5.50;99.90
10660;DHT22;5378;53.206;13.316;2023-01-29T13:27:36;5.50;99.90
10660;DHT22;5378;53.206;13.316;2023-01-29T13:30:26;5.50;99.90
10660;DHT22;5378;53.206;13.316;2023-01-29T13:33:20;5.50;99.90
10660;DHT22;5378;53.206;13.316;2023-01-29T13:36:14;5.60;99.90
10660;DHT22;5378;53.206;13.316;2023-01-29T13:39:04;5.50;99.90
10660;DHT22;5378;53.206;13.316;2023-01-29T13:41:52;5.60;99.90
10660;DHT22;5378;53.206;13.316;2023-01-29T13:44:40;5.60;99.90
10660;DHT22;5378;53.206;13.316;2023-01-29T13:47:31;5.60;99.90
10660;DHT22;5378;53.206;13.316;2023-01-29T13:50:23;5.60;99.90
10660;DHT22;5378;53.206;13.316;2023-01-29T13:53:20;5.60;99.90
10660;DHT22;5378;53.206;13.316;2023-01-29T13:56:28;5.70;99.90
10660;DHT22;5378;53.206;13.316;2023-01-29T13:59:23;5.60;99.90
10660;DHT22;5378;53.206;13.316;2023-01-29T14:02:22;5.60;99.90
10660;DHT22;5378;53.206;13.316;2023-01-29T14:05:41;5.50;99.90
10660;DHT22;5378;53.206;13.316;2023-01-29T14:08:40;5.40;99.90
10660;DHT22;5378;53.206;13.316;2023-01-29T14:11:34;5.30;99.90
10660;DHT22;5378;53.206;13.316;2023-01-29T14:14:50;5.00;99.90
10660;DHT22;5378;53.206;13.316;2023-01-29T14:17:37;5.00;99.90
10660;DHT22;5378;53.206;13.316;2023-01-29T14:20:30;5.00;99.90
10660;DHT22;5378;53.206;13.316;2023-01-29T14:23:38;5.10;99.90
10660;DHT22;5378;53.206;13.316;2023-01-29T14:26:29;5.20;99.90
10660;DHT22;5378;53.206;13.316;2023-01-29T14:29:19;5.20;99.90
10660;DHT22;5378;53.206;13.316;2023-01-29T14:32:20;5.20;99.90
10660;DHT22;5378;53.206;13.316;2023-01-29T14:35:17;5.20;99.90
10660;DHT22;5378;53.206;13.316;2023-01-29T14:38:05;5.20;99.90
10660;DHT22;5378;53.206;13.316;2023-01-29T14:41:05;5.30;99.90
10660;DHT22;5378;53.206;13.316;2023-01-29T14:47:18;5.20;99.90
10660;DHT22;5378;53.206;13.316;2023-01-29T14:53:28;5.10;99.90
10660;DHT22;5378;53.206;13.316;2023-01-29T14:56:25;5.10;99.90
10660;DHT22;5378;53.206;13.316;2023-01-29T14:59:18;5.00;99.90
10660;DHT22;5378;53.206;13.316;2023-01-29T15:02:13;5.00;99.90
10660;DHT22;5378;53.206;13.316;2023-01-29T15:05:06;5.00;99.90
10660;DHT22;5378;53.206;13.316;2023-01-29T15:07:55;4.90;99.90
10660;DHT22;5378;53.206;13.316;2023-01-29T15:10:48;4.80;99.90
10660;DHT22;5378;53.206;13.316;2023-01-29T15:14:04;4.90;99.90
10660;DHT22;5378;53.206;13.316;2023-01-29T15:17:00;4.80;99.90
10660;DHT22;5378;53.206;13.316;2023-01-29T15:19:50;4.80;99.90
10660;DHT22;5378;53.206;13.316;2023-01-29T15:22:41;4.90;99.90
10660;DHT22;5378;53.206;13.316;2023-01-29T15:25:33;4.80;99.90
10660;DHT22;5378;53.206;13.316;2023-01-29T15:28:21;4.90;99.90
10660;DHT22;5378;53.206;13.316;2023-01-29T15:31:15;4.80;99.90
10660;DHT22;5378;53.206;13.316;2023-01-29T15:34:06;4.80;99.90
10660;DHT22;5378;53.206;13.316;2023-01-29T15:36:53;4.80;99.90
10660;DHT22;5378;53.206;13.316;2023-01-29T15:39:41;4.80;99.90
10660;DHT22;5378;53.206;13.316;2023-01-29T15:42:41;4.70;99.90
10660;DHT22;5378;53.206;13.316;2023-01-29T15:45:32;4.70;99.90
10660;DHT22;5378;53.206;13.316;2023-01-29T15:48:25;4.70;99.90
10660;DHT22;5378;53.206;13.316;2023-01-29T15:51:18;4.80;99.90
10660;DHT22;5378;53.206;13.316;2023-01-29T15:54:09;4.70;99.90
10660;DHT22;5378;53.206;13.316;2023-01-29T15:57:01;4.70;99.90
10660;DHT22;5378;53.206;13.316;2023-01-29T15:59:50;4.70;99.90
10660;DHT22;5378;53.206;13.316;2023-01-29T16:02:40;4.80;99.90
10660;DHT22;5378;53.206;13.316;2023-01-29T16:05:29;4.70;99.90
10660;DHT22;5378;53.206;13.316;2023-01-29T16:08:18;4.70;99.90
10660;DHT22;5378;53.206;13.316;2023-01-29T16:11:07;4.70;99.90
10660;DHT22;5378;53.206;13.316;2023-01-29T16:13:55;4.60;99.90
10660;DHT22;5378;53.206;13.316;2023-01-29T16:16:42;4.50;99.90
10660;DHT22;5378;53.206;13.316;2023-01-29T16:19:31;4.50;99.90
10660;DHT22;5378;53.206;13.316;2023-01-29T16:22:19;4.50;99.90
10660;DHT22;5378;53.206;13.316;2023-01-29T16:25:12;4.50;99.90
10660;DHT22;5378;53.206;13.316;2023-01-29T16:28:02;4.60;99.90
10660;DHT22;5378;53.206;13.316;2023-01-29T16:30:54;4.60;99.90
10660;DHT22;5378;53.206;13.316;2023-01-29T16:33:44;4.60;99.90
10660;DHT22;5378;53.206;13.316;2023-01-29T16:36:32;4.40;99.90
10660;DHT22;5378;53.206;13.316;2023-01-29T16:39:23;4.40;99.90
10660;DHT22;5378;53.206;13.316;2023-01-29T16:42:27;4.40;99.90
10660;DHT22;5378;53.206;13.316;2023-01-29T16:45:25;4.40;99.90
10660;DHT22;5378;53.206;13.316;2023-01-29T16:48:25;4.50;99.90
10660;DHT22;5378;53.206;13.316;2023-01-29T16:51:14;4.40;99.90
10660;DHT22;5378;53.206;13.316;2023-01-29T16:54:08;4.40;99.90
10660;DHT22;5378;53.206;13.316;2023-01-29T16:56:59;4.40;99.90
10660;DHT22;5378;53.206;13.316;2023-01-29T16:59:47;4.40;99.90
10660;DHT22;5378;53.206;13.316;2023-01-29T17:02:36;4.40;99.90
10660;DHT22;5378;53.206;13.316;2023-01-29T17:05:26;4.40;99.90
10660;DHT22;5378;53.206;13.316;2023-01-29T17:08:19;4.40;99.90
10660;DHT22;5378;53.206;13.316;2023-01-29T17:11:22;4.40;99.90
10660;DHT22;5378;53.206;13.316;2023-01-29T17:14:17;4.30;99.90
10660;DHT22;5378;53.206;13.316;2023-01-29T17:17:06;4.30;99.90
10660;DHT22;5378;53.206;13.316;2023-01-29T17:19:53;4.30;99.90
10660;DHT22;5378;53.206;13.316;2023-01-29T17:22:41;4.40;99.90
10660;DHT22;5378;53.206;13.316;2023-01-29T17:25:29;4.30;99.90
10660;DHT22;5378;53.206;13.316;2023-01-29T17:28:17;4.30;99.90
10660;DHT22;5378;53.206;13.316;2023-01-29T17:31:06;4.20;99.90
10660;DHT22;5378;53.206;13.316;2023-01-29T17:33:53;4.20;99.90
10660;DHT22;5378;53.206;13.316;2023-01-29T17:36:41;4.20;99.90
10660;DHT22;5378;53.206;13.316;2023-01-29T17:39:28;4.30;99.90
10660;DHT22;5378;53.206;13.316;2023-01-29T17:42:16;4.30;99.90
10660;DHT22;5378;53.206;13.316;2023-01-29T17:45:04;4.20;99.90
10660;DHT22;5378;53.206;13.316;2023-01-29T17:47:52;4.20;99.90
10660;DHT22;5378;53.206;13.316;2023-01-29T17:50:42;4.20;99.90
10660;DHT22;5378;53.206;13.316;2023-01-29T17:53:33;4.10;99.90
10660;DHT22;5378;53.206;13.316;2023-01-29T17:56:35;4.20;99.90
10660;DHT22;5378;53.206;13.316;2023-01-29T17:59:24;4.20;99.90
10660;DHT22;5378;53.206;13.316;2023-01-29T18:02:12;4.20;99.90
10660;DHT22;5378;53.206;13.316;2023-01-29T18:05:03;4.30;99.90
10660;DHT22;5378;53.206;13.316;2023-01-29T18:07:50;4.30;99.90
10660;DHT22;5378;53.206;13.316;2023-01-29T18:10:39;4.20;99.90
10660;DHT22;5378;53.206;13.316;2023-01-29T18:13:27;4.30;99.90
10660;DHT22;5378;53.206;13.316;2023-01-29T18:16:14;4.30;99.90
10660;DHT22;5378;53.206;13.316;2023-01-29T18:19:13;4.30;99.90
10660;DHT22;5378;53.206;13.316;2023-01-29T18:22:02;4.20;99.90
10660;DHT22;5378;53.206;13.316;2023-01-29T18:24:49;4.20;99.90
10660;DHT22;5378;53.206;13.316;2023-01-29T18:27:36;4.20;99.90